Time;durP1;ratioP1;P1;durP2;ratioP2;P2;SDS_P1;SDS_P2;PMS_P1;PMS_P2;Temp;Humidity;BMP_temperature;BMP_pressure;BME280_temperature;BME280_humidity;BME280_pressure;Samples;Min_cycle;Max_cycle;Signal;HPM_P1;HPM_P2
2021/11/24 00:02:19;;;;;;;11.30;6.30;;;;;;;2.24;88.79;97517.25;105348;1309;30249;-86
2021/11/24 00:04:50;;;;;;;9.10;5.60;;;;;;;2.27;88.81;97522.62;105358;1315;30961;-86
2021/11/24 00:07:21;;;;;;;9.90;5.70;;;;;;;2.27;88.65;97524.66;105302;1309;35879;-86
2021/11/24 00:09:52;;;;;;;13.10;5.80;;;;;;;2.29;88.52;97523.98;105309;1311;28421;-86
2021/11/24 00:12:23;;;;;;;9.40;5.70;;;;;;;2.31;88.47;97528.45;105345;1314;31164;-86
2021/11/24 00:14:54;;;;;;;9.00;4.70;;;;;;;2.32;88.48;97523.09;105365;1314;28102;-86
2021/11/24 00:17:25;;;;;;;10.40;5.90;;;;;;;2.32;88.46;97519.38;105359;1312;29207;-86
2021/11/24 00:19:56;;;;;;;9.70;5.70;;;;;;;2.31;88.47;97518.14;105346;1310;31026;-87
2021/11/24 00:22:29;;;;;;;11.10;5.60;;;;;;;2.30;88.48;97515.96;105367;1313;30617;-86
2021/11/24 00:25:01;;;;;;;8.20;4.60;;;;;;;2.30;88.39;97514.11;105322;1310;30514;-87
2021/11/24 00:27:32;;;;;;;9.70;5.60;;;;;;;2.30;88.43;97516.60;105323;1309;28805;-85
2021/11/24 00:30:04;;;;;;;9.20;5.00;;;;;;;2.30;88.32;97520.55;105436;1314;29005;-86
2021/11/24 00:32:35;;;;;;;8.70;5.80;;;;;;;2.30;88.41;97517.70;105420;1309;26450;-86
2021/11/24 00:35:09;;;;;;;9.80;5.60;;;;;;;2.31;88.34;97519.87;105380;1314;32250;-86
2021/11/24 00:37:40;;;;;;;8.20;5.50;;;;;;;2.31;88.35;97520.30;105384;1310;27599;-86
2021/11/24 00:40:11;;;;;;;10.40;5.50;;;;;;;2.33;88.21;97521.98;105300;1315;30486;-86
2021/11/24 00:42:42;;;;;;;11.30;4.90;;;;;;;2.34;88.29;97518.85;105355;1311;28966;-86
2021/11/24 00:45:14;;;;;;;8.40;5.50;;;;;;;2.33;88.33;97519.91;105319;1312;30790;-86
2021/11/24 00:47:46;;;;;;;9.00;5.70;;;;;;;2.32;88.37;97521.84;105299;1314;30555;-86
2021/11/24 00:50:17;;;;;;;9.40;5.10;;;;;;;2.32;88.29;97525.82;105285;1309;32848;-86
2021/11/24 00:52:51;;;;;;;8.90;5.20;;;;;;;2.32;88.26;97524.25;105318;1309;30328;-86
2021/11/24 00:55:22;;;;;;;10.80;5.70;;;;;;;2.31;88.22;97527.67;105372;1310;30462;-87
2021/11/24 00:57:55;;;;;;;10.70;5.50;;;;;;;2.31;88.36;97526.88;105348;1316;30413;-87
2021/11/24 01:00:26;;;;;;;9.10;5.60;;;;;;;2.28;88.32;97526.16;105367;1316;30958;-87
2021/11/24 01:02:57;;;;;;;9.40;5.10;;;;;;;2.26;88.42;97531.80;105339;1315;29672;-86
2021/11/24 01:05:30;;;;;;;9.50;6.00;;;;;;;2.24;88.49;97528.63;105330;1309;26131;-86
2021/11/24 01:08:01;;;;;;;11.40;5.70;;;;;;;2.22;88.48;97525.54;105302;1313;30728;-87
2021/11/24 01:10:32;;;;;;;8.40;5.70;;;;;;;2.21;88.51;97524.45;105366;1310;27302;-86
2021/11/24 01:13:03;;;;;;;9.90;5.70;;;;;;;2.20;88.41;97522.69;105410;1309;27383;-86
2021/11/24 01:15:34;;;;;;;8.40;5.50;;;;;;;2.21;88.44;97524.02;105383;1309;28493;-87
2021/11/24 01:18:05;;;;;;;9.70;5.80;;;;;;;2.21;88.43;97523.48;105389;1313;27486;-86
2021/11/24 01:20:36;;;;;;;11.20;6.10;;;;;;;2.19;88.52;97522.44;105396;1309;26933;-86
2021/11/24 01:23:07;;;;;;;10.00;5.20;;;;;;;2.17;88.45;97519.40;105394;1314;28526;-86
2021/11/24 01:25:38;;;;;;;8.70;5.20;;;;;;;2.16;88.66;97519.00;105359;1309;27439;-86
2021/11/24 01:28:10;;;;;;;8.70;4.70;;;;;;;2.13;88.63;97515.10;105342;1309;27445;-85
2021/11/24 01:30:40;;;;;;;7.40;4.80;;;;;;;2.12;88.71;97514.54;105325;1309;27104;-86
2021/11/24 01:33:11;;;;;;;8.60;5.50;;;;;;;2.12;88.68;97516.67;105343;1309;30883;-86
2021/11/24 01:35:43;;;;;;;7.40;4.70;;;;;;;2.11;88.82;97512.95;105364;1309;25323;-86
2021/11/24 01:38:14;;;;;;;8.00;4.80;;;;;;;2.10;88.69;97515.32;105341;1311;27130;-86
2021/11/24 01:40:45;;;;;;;7.50;4.70;;;;;;;2.07;88.70;97513.55;105332;1313;28814;-86
2021/11/24 01:43:16;;;;;;;8.80;5.40;;;;;;;2.05;88.79;97511.27;105332;1309;26541;-86
2021/11/24 01:45:48;;;;;;;9.30;5.40;;;;;;;2.03;88.79;97511.23;105392;1310;28152;-86
2021/11/24 01:48:19;;;;;;;9.20;5.50;;;;;;;2.03;88.88;97513.77;105357;1314;31074;-86
2021/11/24 01:50:50;;;;;;;8.40;5.30;;;;;;;2.04;88.93;97513.85;105317;1314;31129;-87
2021/11/24 01:53:21;;;;;;;6.20;4.60;;;;;;;2.05;88.92;97514.25;105346;1312;26874;-86
2021/11/24 01:55:55;;;;;;;8.70;5.20;;;;;;;2.05;88.91;97514.16;105313;1311;32419;-85
2021/11/24 01:58:26;;;;;;;7.70;4.80;;;;;;;2.06;89.02;97514.20;105365;1312;34369;-86
2021/11/24 02:00:57;;;;;;;8.20;5.40;;;;;;;2.07;88.99;97514.88;105315;1309;32261;-86
2021/11/24 02:03:28;;;;;;;8.70;5.20;;;;;;;2.07;89.05;97515.33;105365;1315;30787;-86
2021/11/24 02:06:00;;;;;;;8.40;5.50;;;;;;;2.07;88.96;97518.51;105307;1314;32071;-86
2021/11/24 02:08:31;;;;;;;7.50;5.00;;;;;;;2.07;89.29;97521.48;105316;1309;32950;-86
2021/11/24 02:11:02;;;;;;;9.40;6.00;;;;;;;2.06;89.21;97515.97;105311;1309;31364;-86
2021/11/24 02:13:33;;;;;;;9.30;5.60;;;;;;;2.08;89.31;97517.05;105314;1309;34918;-87
2021/11/24 02:16:04;;;;;;;9.80;5.10;;;;;;;2.10;89.17;97513.35;105210;1313;33000;-87
2021/11/24 02:18:35;;;;;;;7.90;5.10;;;;;;;2.08;89.46;97510.48;105373;1309;31204;-87
2021/11/24 02:21:06;;;;;;;7.80;4.80;;;;;;;2.04;89.42;97507.69;105380;1315;30757;-87
2021/11/24 02:23:37;;;;;;;9.40;5.10;;;;;;;2.02;89.68;97501.90;105390;1309;30217;-87
2021/11/24 02:26:08;;;;;;;7.30;4.50;;;;;;;2.01;89.75;97501.17;105366;1314;31102;-86
2021/11/24 02:28:39;;;;;;;8.60;5.10;;;;;;;2.02;89.73;97504.71;105313;1316;31515;-87
2021/11/24 02:31:21;;;;;;;7.90;5.00;;;;;;;2.02;89.74;97500.85;105321;1309;27477;-87
2021/11/24 02:33:54;;;;;;;12.10;5.20;;;;;;;2.00;89.82;97501.30;105332;1314;29702;-87
2021/11/24 02:36:26;;;;;;;9.10;5.30;;;;;;;1.98;89.95;97497.76;105310;1312;29901;-87
2021/11/24 02:38:59;;;;;;;9.90;5.30;;;;;;;1.95;90.08;97497.02;105321;1316;30235;-87
2021/11/24 02:41:31;;;;;;;9.60;5.90;;;;;;;1.93;90.04;97499.72;105339;1309;33990;-87
2021/11/24 02:44:19;;;;;;;9.50;5.70;;;;;;;1.93;89.96;97495.90;105317;1313;31791;-87
2021/11/24 02:46:51;;;;;;;7.40;4.90;;;;;;;1.94;90.13;97498.59;105433;1315;32680;-87
2021/11/24 02:49:22;;;;;;;9.20;5.20;;;;;;;1.95;90.14;97497.10;105399;1313;30155;-87
2021/11/24 02:51:53;;;;;;;7.20;4.60;;;;;;;1.96;90.22;97497.30;105428;1313;29131;-86
2021/11/24 02:54:24;;;;;;;9.10;5.40;;;;;;;1.96;90.09;97496.25;105443;1310;30096;-87
2021/11/24 02:56:55;;;;;;;8.00;5.80;;;;;;;1.96;90.23;97498.74;105434;1314;29708;-87
2021/11/24 02:59:26;;;;;;;9.20;4.90;;;;;;;1.95;90.16;97500.55;105382;1315;33231;-87
2021/11/24 03:01:57;;;;;;;10.60;5.40;;;;;;;1.96;90.11;97498.71;105309;1309;29578;-87
2021/11/24 03:04:31;;;;;;;8.10;5.00;;;;;;;1.95;90.31;97495.13;105310;1316;29532;-87
2021/11/24 03:07:03;;;;;;;8.00;5.00;;;;;;;1.95;90.41;97500.44;105347;1310;29289;-87
2021/11/24 03:09:34;;;;;;;6.90;4.90;;;;;;;1.94;90.38;97499.11;105373;1316;33868;-86
2021/11/24 03:12:06;;;;;;;7.70;4.90;;;;;;;1.93;90.46;97498.59;105413;1311;33609;-86
2021/11/24 03:14:37;;;;;;;7.70;5.00;;;;;;;1.93;90.53;97496.86;105386;1313;28028;-87
2021/11/24 03:17:08;;;;;;;7.30;4.50;;;;;;;1.93;90.50;97493.52;105374;1308;29542;-87
2021/11/24 03:19:39;;;;;;;7.70;4.20;;;;;;;1.93;90.52;97491.27;105333;1309;28778;-86
2021/11/24 03:22:10;;;;;;;7.90;5.00;;;;;;;1.92;90.45;97490.14;105347;1313;29648;-87
2021/11/24 03:24:41;;;;;;;8.50;4.30;;;;;;;1.94;90.43;97489.25;105356;1315;31029;-87
2021/11/24 03:27:12;;;;;;;7.90;4.70;;;;;;;1.94;90.47;97490.05;105323;1313;30117;-87
2021/11/24 03:29:43;;;;;;;7.80;4.40;;;;;;;1.94;90.39;97492.46;105335;1313;80174;-87
2021/11/24 03:32:14;;;;;;;6.30;4.00;;;;;;;1.95;90.44;97497.22;105295;1315;27461;-87
2021/11/24 03:34:45;;;;;;;5.20;3.60;;;;;;;1.97;90.23;97494.89;105343;1315;31041;-87
2021/11/24 03:37:19;;;;;;;5.70;3.70;;;;;;;1.99;90.19;97498.16;105301;1315;30089;-87
2021/11/24 03:39:51;;;;;;;5.80;3.60;;;;;;;1.99;90.22;97498.25;105362;1313;28976;-87
2021/11/24 03:42:22;;;;;;;5.90;4.00;;;;;;;1.99;90.22;97496.52;105371;1313;29124;-87
2021/11/24 03:44:54;;;;;;;5.10;3.50;;;;;;;1.99;90.19;97494.27;105312;1313;39906;-86
2021/11/24 03:47:25;;;;;;;6.10;3.40;;;;;;;2.01;90.11;97493.73;105294;1316;30580;-87
2021/11/24 03:49:56;;;;;;;5.30;3.30;;;;;;;2.02;90.08;97490.64;105360;1311;29015;-87
2021/11/24 03:52:27;;;;;;;5.90;3.70;;;;;;;2.02;90.01;97484.11;105330;1313;29636;-86
2021/11/24 03:54:58;;;;;;;6.30;4.40;;;;;;;2.02;90.01;97483.02;105340;1309;30002;-87
2021/11/24 03:57:29;;;;;;;6.50;4.30;;;;;;;1.99;89.97;97482.55;105319;1312;27802;-86
2021/11/24 04:00:00;;;;;;;6.70;4.60;;;;;;;1.97;89.97;97482.46;105363;1310;27781;-87
2021/11/24 04:02:31;;;;;;;6.90;4.80;;;;;;;1.96;89.98;97478.14;105348;1310;28763;-86
2021/11/24 04:05:02;;;;;;;7.50;4.70;;;;;;;1.94;89.76;97484.71;105314;1312;31041;-87
2021/11/24 04:07:33;;;;;;;7.60;4.40;;;;;;;1.91;89.89;97477.23;105351;1310;31286;-87
2021/11/24 04:10:05;;;;;;;5.60;3.70;;;;;;;1.88;89.66;97476.00;105356;1309;28665;-87
2021/11/24 04:12:37;;;;;;;7.50;4.10;;;;;;;1.87;89.63;97473.42;105410;1313;28575;-87
2021/11/24 04:15:10;;;;;;;7.80;5.10;;;;;;;1.85;89.64;97475.11;105375;1316;28522;-87
2021/11/24 04:17:41;;;;;;;7.60;5.00;;;;;;;1.79;89.81;97470.60;105308;1311;29363;-87
2021/11/24 04:20:15;;;;;;;8.20;5.30;;;;;;;1.70;89.78;97471.52;105363;1312;33041;-87
2021/11/24 04:22:46;;;;;;;10.00;5.90;;;;;;;1.68;89.95;97469.14;105325;1316;29432;-87
2021/11/24 04:25:19;;;;;;;10.80;6.20;;;;;;;1.65;89.80;97465.92;105272;1316;28410;-87
2021/11/24 04:27:51;;;;;;;12.40;6.80;;;;;;;1.60;89.83;97467.34;105318;1316;29343;-87
2021/11/24 04:30:22;;;;;;;10.10;6.30;;;;;;;1.54;89.74;97464.59;105333;1313;28828;-87
2021/11/24 04:32:53;;;;;;;9.70;5.80;;;;;;;1.47;89.76;97461.33;105350;1309;27192;-87
2021/11/24 04:35:24;;;;;;;10.30;6.40;;;;;;;1.41;89.70;97453.96;105316;1309;30747;-87
2021/11/24 04:37:55;;;;;;;8.40;5.70;;;;;;;1.36;89.81;97450.77;105314;1316;31575;-87
2021/11/24 04:40:27;;;;;;;9.20;5.40;;;;;;;1.34;89.71;97447.40;105283;1311;29719;-87
2021/11/24 04:43:00;;;;;;;9.50;5.30;;;;;;;1.29;89.63;97452.27;105343;1312;28546;-87
2021/11/24 04:45:31;;;;;;;8.60;5.20;;;;;;;1.25;89.59;97449.06;105277;1313;27327;-87
2021/11/24 04:48:03;;;;;;;9.30;4.70;;;;;;;1.24;89.54;97450.16;105293;1315;36125;-87
2021/11/24 04:50:34;;;;;;;9.30;5.30;;;;;;;1.20;89.54;97446.42;105402;1311;29647;-87
2021/11/24 04:53:05;;;;;;;9.80;5.80;;;;;;;1.18;89.59;97443.00;105381;1313;28823;-86
2021/11/24 04:55:36;;;;;;;10.20;5.50;;;;;;;1.14;89.85;97446.33;105377;1315;30851;-86
2021/11/24 04:58:07;;;;;;;10.10;5.90;;;;;;;1.08;89.90;97444.14;105360;1310;27904;-86
2021/11/24 05:00:39;;;;;;;7.60;5.10;;;;;;;1.04;89.68;97446.94;105376;1316;30902;-86
2021/11/24 05:03:10;;;;;;;6.30;4.40;;;;;;;0.97;89.79;97448.23;105280;1313;28483;-86
2021/11/24 05:05:41;;;;;;;6.40;4.20;;;;;;;0.92;90.02;97447.06;105328;1313;31139;-86
2021/11/24 05:08:12;;;;;;;6.30;3.60;;;;;;;0.92;89.99;97449.23;105362;1312;28101;-86
2021/11/24 05:10:43;;;;;;;6.90;3.90;;;;;;;0.90;90.07;97447.83;105381;1313;28483;-89
2021/11/24 05:13:14;;;;;;;6.10;3.50;;;;;;;0.92;89.93;97443.70;105336;1312;28248;-87
2021/11/24 05:15:46;;;;;;;8.10;4.40;;;;;;;0.94;90.27;97442.02;105312;1309;35316;-87
2021/11/24 05:18:22;;;;;;;7.10;4.20;;;;;;;0.93;90.26;97441.80;105354;1312;26910;-87
2021/11/24 05:20:55;;;;;;;8.40;4.40;;;;;;;0.90;90.10;97445.45;105306;1312;30720;-87
2021/11/24 05:23:26;;;;;;;8.10;4.10;;;;;;;0.89;90.07;97441.00;105292;1313;29888;-87
2021/11/24 05:25:57;;;;;;;5.20;3.50;;;;;;;0.88;90.40;97439.46;105321;1313;30318;-87
2021/11/24 05:28:28;;;;;;;6.30;4.00;;;;;;;0.87;90.24;97433.00;105376;1315;29104;-87
2021/11/24 05:30:59;;;;;;;7.20;4.00;;;;;;;0.85;90.17;97434.44;105284;1313;30506;-86
2021/11/24 05:33:31;;;;;;;7.20;4.40;;;;;;;0.86;90.11;97440.23;105313;1315;37667;-87
2021/11/24 05:36:02;;;;;;;8.60;4.90;;;;;;;0.87;90.07;97436.02;105336;1315;28408;-87
2021/11/24 05:38:33;;;;;;;7.70;4.70;;;;;;;0.90;90.66;97443.02;105318;1313;27725;-86
2021/11/24 05:41:04;;;;;;;9.10;5.40;;;;;;;0.90;90.26;97444.73;105390;1316;28195;-86
2021/11/24 05:43:36;;;;;;;8.40;5.00;;;;;;;0.95;90.64;97447.27;105359;1316;28510;-86
2021/11/24 05:46:15;;;;;;;5.80;4.50;;;;;;;0.96;90.68;97445.17;105401;1315;37795;-86
2021/11/24 05:48:47;;;;;;;8.30;4.90;;;;;;;1.00;90.73;97438.02;105324;1312;29422;-86
2021/11/24 05:51:18;;;;;;;7.40;4.90;;;;;;;1.04;90.71;97434.77;105320;1310;62518;-87
2021/11/24 05:53:49;;;;;;;7.90;4.50;;;;;;;1.06;90.49;97433.61;105309;1313;28383;-86
2021/11/24 05:56:20;;;;;;;9.10;5.50;;;;;;;1.07;90.49;97438.91;105350;1312;29520;-87
2021/11/24 05:58:52;;;;;;;10.20;6.30;;;;;;;1.09;90.55;97440.68;105310;1313;26749;-86
2021/11/24 06:01:22;;;;;;;13.30;8.00;;;;;;;1.14;90.78;97442.66;105297;1313;28412;-87
2021/11/24 06:03:54;;;;;;;11.10;6.50;;;;;;;1.18;90.72;97444.72;105317;1315;28388;-87
2021/11/24 06:06:25;;;;;;;9.10;5.60;;;;;;;1.21;90.76;97443.80;105358;1313;28094;-86
2021/11/24 06:08:56;;;;;;;10.80;6.40;;;;;;;1.25;90.93;97445.41;105323;1313;26317;-86
2021/11/24 06:11:27;;;;;;;9.60;4.50;;;;;;;1.32;90.93;97440.85;105390;1313;26594;-87
2021/11/24 06:13:58;;;;;;;7.20;5.00;;;;;;;1.39;90.79;97452.30;105355;1311;32605;-86
2021/11/24 06:16:29;;;;;;;8.80;5.20;;;;;;;1.41;90.82;97452.08;105302;1316;36475;-86
2021/11/24 06:19:01;;;;;;;9.10;4.50;;;;;;;1.42;90.92;97450.69;105298;1311;35649;-87
2021/11/24 06:21:32;;;;;;;8.90;5.00;;;;;;;1.48;90.74;97450.64;105307;1315;39275;-87
2021/11/24 06:24:04;;;;;;;9.00;5.50;;;;;;;1.53;90.66;97454.90;105205;1309;31227;-86
2021/11/24 06:26:35;;;;;;;9.50;5.30;;;;;;;1.56;90.67;97461.11;105392;1310;28449;-87
2021/11/24 06:29:06;;;;;;;10.30;5.10;;;;;;;1.59;90.64;97461.59;105384;1314;31702;-87
2021/11/24 06:31:37;;;;;;;9.10;4.80;;;;;;;1.61;90.53;97461.23;105302;1310;31406;-87
2021/11/24 06:34:08;;;;;;;6.20;4.30;;;;;;;1.63;90.47;97463.15;105434;1313;29053;-89
2021/11/24 06:36:39;;;;;;;7.30;5.20;;;;;;;1.65;90.52;97467.93;105390;1313;27283;-87
2021/11/24 06:39:11;;;;;;;8.80;5.30;;;;;;;1.67;90.45;97470.55;105308;1313;31454;-87
2021/11/24 06:41:42;;;;;;;7.30;4.40;;;;;;;1.70;90.49;97477.88;105361;1314;31600;-87
2021/11/24 06:44:14;;;;;;;9.90;5.40;;;;;;;1.73;90.19;97479.26;105294;1310;36956;-87
2021/11/24 06:46:45;;;;;;;9.00;5.10;;;;;;;1.75;90.31;97477.08;105408;1312;28432;-88
2021/11/24 06:49:16;;;;;;;9.60;4.90;;;;;;;1.77;90.28;97474.73;105343;1315;26902;-88
2021/11/24 06:51:47;;;;;;;8.20;4.80;;;;;;;1.77;90.35;97476.86;105316;1312;29823;-88
2021/11/24 06:54:18;;;;;;;8.10;5.00;;;;;;;1.80;90.16;97480.41;105293;1310;30727;-88
2021/11/24 06:56:51;;;;;;;8.60;5.20;;;;;;;1.83;90.08;97481.02;105303;1313;29506;-88
2021/11/24 06:59:22;;;;;;;6.70;4.80;;;;;;;1.86;90.09;97475.95;105311;1313;28310;-88
2021/11/24 07:01:54;;;;;;;10.30;5.50;;;;;;;1.91;90.08;97478.48;105332;1311;34983;-87
2021/11/24 07:04:25;;;;;;;8.00;5.30;;;;;;;1.95;90.08;97478.39;105322;1314;29790;-87
2021/11/24 07:06:56;;;;;;;6.50;4.50;;;;;;;1.99;89.85;97483.95;105310;1316;30154;-88
2021/11/24 07:09:27;;;;;;;8.90;4.90;;;;;;;2.03;89.73;97483.63;105287;1312;72501;-89
2021/11/24 07:11:58;;;;;;;7.80;5.20;;;;;;;2.06;89.74;97482.34;105316;1316;29541;-87
2021/11/24 07:14:29;;;;;;;7.00;4.50;;;;;;;2.09;89.62;97477.45;105290;1313;33340;-88
2021/11/24 07:17:00;;;;;;;6.60;4.30;;;;;;;2.12;89.57;97477.42;105308;1312;30388;-87
2021/11/24 07:19:32;;;;;;;9.00;4.90;;;;;;;2.15;89.37;97481.93;105326;1310;28776;-87
2021/11/24 07:22:03;;;;;;;8.90;4.90;;;;;;;2.16;89.34;97478.91;105329;1313;28735;-87
2021/11/24 07:24:34;;;;;;;6.20;4.50;;;;;;;2.18;89.28;97482.01;105330;1315;30296;-88
2021/11/24 07:27:05;;;;;;;8.10;5.10;;;;;;;2.19;89.23;97485.30;105391;1311;29818;-87
2021/11/24 07:29:37;;;;;;;9.80;5.70;;;;;;;2.22;89.16;97485.34;105415;1311;28424;-87
2021/11/24 07:32:10;;;;;;;11.80;6.10;;;;;;;2.26;89.15;97481.15;105366;1310;28533;-87
2021/11/24 07:34:41;;;;;;;8.00;5.40;;;;;;;2.30;89.13;97479.82;105299;1313;30008;-87
2021/11/24 07:37:12;;;;;;;9.20;4.90;;;;;;;2.31;88.84;97480.27;105310;1310;29206;-87
2021/11/24 07:39:44;;;;;;;6.90;4.50;;;;;;;2.31;88.57;97478.52;105333;1312;28635;-87
2021/11/24 07:42:15;;;;;;;8.00;4.70;;;;;;;2.31;88.53;97478.80;105353;1309;29920;-88
2021/11/24 07:44:47;;;;;;;6.60;4.00;;;;;;;2.34;88.56;97481.69;105332;1316;30786;-87
2021/11/24 07:47:19;;;;;;;8.40;4.50;;;;;;;2.34;88.41;97485.72;105339;1309;31197;-87
2021/11/24 07:49:50;;;;;;;10.60;5.80;;;;;;;2.33;88.32;97486.82;105251;1310;28652;-88
2021/11/24 07:52:21;;;;;;;8.50;4.10;;;;;;;2.33;88.17;97485.84;105309;1313;31315;-87
2021/11/24 07:54:53;;;;;;;9.20;4.90;;;;;;;2.34;88.26;97484.39;105264;1313;29551;-87
2021/11/24 07:57:24;;;;;;;8.30;4.80;;;;;;;2.37;88.40;97483.09;105325;1307;37220;-88
2021/11/24 07:59:55;;;;;;;8.90;5.50;;;;;;;2.41;88.30;97478.48;105312;1315;30585;-88
2021/11/24 08:02:26;;;;;;;8.30;4.50;;;;;;;2.41;88.13;97482.86;105293;1315;28625;-88
2021/11/24 08:04:57;;;;;;;7.70;4.60;;;;;;;2.43;88.04;97484.71;105280;1311;30978;-87
2021/11/24 08:07:28;;;;;;;7.70;4.10;;;;;;;2.44;87.97;97480.67;105341;1310;30838;-88
2021/11/24 08:09:59;;;;;;;8.10;4.50;;;;;;;2.46;88.03;97480.14;105266;1309;31421;-88
2021/11/24 08:12:30;;;;;;;6.60;4.10;;;;;;;2.52;88.07;97478.65;105298;1309;30587;-88
2021/11/24 08:15:02;;;;;;;6.60;4.30;;;;;;;2.53;87.81;97473.64;105309;1313;48636;-88
2021/11/24 08:17:33;;;;;;;7.80;4.70;;;;;;;2.53;87.76;97471.34;105306;1315;35387;-88
2021/11/24 08:20:05;;;;;;;7.90;4.80;;;;;;;2.58;87.68;97468.20;105317;1313;31312;-88
2021/11/24 08:22:36;;;;;;;7.90;4.40;;;;;;;2.64;87.69;97470.10;105422;1312;29556;-88
2021/11/24 08:25:09;;;;;;;5.60;3.90;;;;;;;2.66;87.41;97471.82;105387;1310;28162;-88
2021/11/24 08:27:41;;;;;;;4.90;3.20;;;;;;;2.70;87.25;97469.66;105310;1310;32218;-87
2021/11/24 08:30:22;;;;;;;6.80;4.10;;;;;;;2.75;86.93;97471.05;105309;1312;39022;-87
2021/11/24 08:32:54;;;;;;;8.80;4.40;;;;;;;2.78;86.87;97470.05;105295;1311;30363;-88
2021/11/24 08:35:27;;;;;;;8.60;5.60;;;;;;;2.81;86.78;97469.16;105337;1313;29424;-87
2021/11/24 08:37:58;;;;;;;5.60;3.80;;;;;;;2.84;86.78;97469.23;105360;1313;29047;-88
2021/11/24 08:40:29;;;;;;;5.70;3.80;;;;;;;2.90;86.68;97475.36;105287;1312;28750;-87
2021/11/24 08:43:00;;;;;;;5.20;3.30;;;;;;;2.96;86.55;97475.00;105365;1312;27002;-87
2021/11/24 08:45:31;;;;;;;7.00;4.10;;;;;;;3.00;86.48;97475.87;105335;1313;27123;-88
2021/11/24 08:48:04;;;;;;;5.80;3.10;;;;;;;3.06;86.35;97476.90;105322;1310;27389;-87
2021/11/24 08:50:37;;;;;;;6.00;3.10;;;;;;;3.12;85.98;97477.02;105406;1309;29536;-88
2021/11/24 08:53:08;;;;;;;4.40;2.50;;;;;;;3.12;84.95;97473.47;105407;1310;28064;-87
2021/11/24 08:55:39;;;;;;;3.70;2.30;;;;;;;3.13;84.16;97473.96;105448;1311;26907;-87
2021/11/24 08:58:12;;;;;;;2.60;1.30;;;;;;;3.18;83.79;97480.57;105337;1313;28222;-87
2021/11/24 09:00:43;;;;;;;3.40;2.10;;;;;;;3.20;83.04;97478.08;105305;1301;27087;-87
2021/11/24 09:03:15;;;;;;;2.10;1.50;;;;;;;3.26;83.17;97477.83;105323;1315;33595;-88
2021/11/24 09:05:46;;;;;;;1.40;1.20;;;;;;;3.25;82.01;97480.98;105200;1309;26666;-87
2021/11/24 09:08:17;;;;;;;2.70;1.40;;;;;;;3.19;80.90;97480.29;105185;1309;32558;-87
2021/11/24 09:10:48;;;;;;;1.20;1.10;;;;;;;3.19;81.02;97476.56;105213;1316;29737;-87
2021/11/24 09:13:19;;;;;;;3.40;1.70;;;;;;;3.18;80.33;97474.35;105181;1313;35382;-87
2021/11/24 09:15:50;;;;;;;3.90;2.50;;;;;;;3.21;80.97;97472.23;105159;1312;27987;-88
2021/11/24 09:18:21;;;;;;;2.90;2.10;;;;;;;3.29;81.54;97472.58;105215;1316;29756;-87
2021/11/24 09:20:52;;;;;;;2.90;2.10;;;;;;;3.36;81.33;97470.02;105179;1315;27876;-88
2021/11/24 09:23:25;;;;;;;5.20;1.90;;;;;;;3.39;80.62;97475.17;105158;1310;29437;-88
2021/11/24 09:26:03;;;;;;;3.20;2.10;;;;;;;3.47;80.98;97468.59;105182;1315;30104;-88
2021/11/24 09:28:37;;;;;;;3.10;1.90;;;;;;;3.58;81.10;97465.26;105276;1309;26800;-88
2021/11/24 09:31:08;;;;;;;5.60;2.70;;;;;;;3.65;80.95;97463.98;105252;1309;30815;-87
2021/11/24 09:33:39;;;;;;;2.30;1.50;;;;;;;3.72;80.84;97460.88;105187;1314;31280;-87
2021/11/24 09:36:12;;;;;;;3.70;1.80;;;;;;;3.69;79.52;97457.30;105191;1316;46241;-86
2021/11/24 09:38:43;;;;;;;3.30;2.10;;;;;;;3.57;79.21;97457.68;105107;1315;29009;-87
2021/11/24 09:41:15;;;;;;;3.00;1.50;;;;;;;3.57;78.89;97458.73;105139;1309;27616;-86
2021/11/24 09:43:51;;;;;;;2.60;1.40;;;;;;;3.66;78.51;97456.77;105124;1309;29873;-87
2021/11/24 09:46:24;;;;;;;1.50;1.40;;;;;;;3.69;78.20;97455.83;105186;1314;28996;-87
2021/11/24 09:48:56;;;;;;;2.00;1.30;;;;;;;3.70;78.15;97454.84;105212;1312;29078;-87
2021/11/24 09:51:27;;;;;;;2.90;1.60;;;;;;;3.70;77.89;97457.52;105160;1309;29274;-87
2021/11/24 09:53:59;;;;;;;3.20;1.80;;;;;;;3.68;77.34;97457.23;105239;1314;28023;-87
2021/11/24 09:56:31;;;;;;;2.10;1.50;;;;;;;3.63;77.12;97459.12;105171;1312;30094;-87
2021/11/24 09:59:02;;;;;;;3.00;1.40;;;;;;;3.64;77.40;97459.66;105234;1309;29158;-87
2021/11/24 10:01:34;;;;;;;2.80;1.90;;;;;;;3.65;77.07;97454.98;105137;1309;32520;-87
2021/11/24 10:04:05;;;;;;;1.80;1.30;;;;;;;3.66;76.95;97453.45;105286;1310;26864;-87
2021/11/24 10:06:39;;;;;;;2.40;1.60;;;;;;;3.56;75.91;97450.41;105365;1310;29078;-87
2021/11/24 10:09:12;;;;;;;2.50;1.20;;;;;;;3.47;75.62;97448.95;105366;1309;29373;-86
2021/11/24 10:11:43;;;;;;;2.40;1.50;;;;;;;3.37;75.36;97448.69;105353;1310;27544;-87
2021/11/24 10:14:15;;;;;;;3.40;1.50;;;;;;;3.36;75.30;97444.54;105153;1315;254776;-87
2021/11/24 10:16:47;;;;;;;2.00;1.40;;;;;;;3.34;75.18;97443.70;105320;1313;28738;-87
2021/11/24 10:19:18;;;;;;;2.10;1.40;;;;;;;3.37;75.40;97439.36;105372;1311;27382;-87
2021/11/24 10:22:01;;;;;;;2.40;1.90;;;;;;;3.42;75.43;97436.89;105364;1310;27670;-87
2021/11/24 10:24:35;;;;;;;4.40;2.00;;;;;;;3.43;75.36;97433.94;105346;1311;27316;-87
2021/11/24 10:27:08;;;;;;;2.20;1.60;;;;;;;3.40;74.92;97430.48;105372;1311;26634;-87
2021/11/24 10:29:41;;;;;;;3.00;1.90;;;;;;;3.40;75.45;97428.77;105431;1311;26612;-87
2021/11/24 10:32:16;;;;;;;3.90;2.00;;;;;;;3.41;75.00;97425.98;105343;1311;26948;-87
2021/11/24 10:34:49;;;;;;;3.00;1.70;;;;;;;3.42;75.18;97425.79;105289;1313;29039;-87
2021/11/24 10:37:24;;;;;;;2.80;1.90;;;;;;;3.45;75.26;97423.04;105324;1313;28234;-87
2021/11/24 10:40:02;;;;;;;3.50;2.30;;;;;;;3.47;75.06;97417.81;105277;1310;29384;-87
2021/11/24 10:42:35;;;;;;;4.00;1.90;;;;;;;3.50;75.05;97415.08;105320;1309;30402;-87
2021/11/24 10:45:13;;;;;;;2.60;1.60;;;;;;;3.48;74.53;97412.55;105448;1310;35736;-87
2021/11/24 10:47:54;;;;;;;2.80;1.70;;;;;;;3.46;74.43;97410.69;105347;1311;26386;-87
2021/11/24 10:50:24;;;;;;;;;;;;;;;3.45;74.38;97404.08;105271;1313;30318;-88
2021/11/24 10:52:55;;;;;;;1.60;1.30;;;;;;;3.45;74.37;97402.83;105343;1310;32611;-87
2021/11/24 10:55:30;;;;;;;2.80;1.90;;;;;;;3.45;74.17;97400.04;105303;1310;29742;-88
2021/11/24 10:58:07;;;;;;;1.70;1.50;;;;;;;3.45;74.27;97395.05;105295;1314;30691;-87
2021/11/24 11:00:41;;;;;;;1.90;1.70;;;;;;;3.47;74.34;97394.42;105343;1313;31542;-87
2021/11/24 11:03:13;;;;;;;2.10;1.90;;;;;;;3.51;74.57;97390.64;105338;1311;48206;-88
2021/11/24 11:05:45;;;;;;;3.90;1.60;;;;;;;3.62;74.71;97390.07;105346;1313;29428;-88
2021/11/24 11:08:19;;;;;;;3.30;2.10;;;;;;;3.64;74.28;97389.88;105341;1311;38109;-87
2021/11/24 11:10:52;;;;;;;2.40;1.50;;;;;;;3.63;74.41;97385.29;105372;1313;28490;-87
2021/11/24 11:13:30;;;;;;;2.40;1.50;;;;;;;3.65;74.28;97383.66;105303;1309;29915;-88
2021/11/24 11:16:01;;;;;;;2.30;1.50;;;;;;;3.66;74.08;97377.48;105292;1309;31630;-88
2021/11/24 11:18:38;;;;;;;2.10;1.70;;;;;;;3.64;73.88;97375.60;105360;1310;31291;-87
2021/11/24 11:21:15;;;;;;;4.00;2.00;;;;;;;3.64;74.05;97373.14;105338;1310;31594;-84
2021/11/24 11:23:48;;;;;;;2.70;1.60;;;;;;;3.65;74.31;97370.48;105289;1314;31030;-87
2021/11/24 11:26:22;;;;;;;2.20;1.70;;;;;;;3.74;74.52;97367.21;105281;1313;32086;-87
2021/11/24 11:28:55;;;;;;;2.40;1.90;;;;;;;3.80;74.52;97364.70;105293;1310;30112;-87
2021/11/24 11:31:37;;;;;;;3.00;2.10;;;;;;;3.79;74.24;97365.55;105338;1311;31481;-87
2021/11/24 11:34:10;;;;;;;3.70;2.40;;;;;;;3.82;74.78;97360.53;105376;1309;30281;-87
2021/11/24 11:36:42;;;;;;;2.80;1.90;;;;;;;3.89;74.78;97356.77;105314;1310;29453;-87
2021/11/24 11:39:13;;;;;;;3.30;2.20;;;;;;;3.92;74.35;97349.60;105304;1315;30669;-87
2021/11/24 11:41:44;;;;;;;3.30;1.90;;;;;;;3.93;74.26;97349.39;105332;1309;27464;-87
2021/11/24 11:44:19;;;;;;;3.60;2.10;;;;;;;3.97;74.39;97346.58;105316;1310;31582;-87
2021/11/24 11:46:53;;;;;;;2.30;2.00;;;;;;;4.04;74.50;97345.48;105325;1309;28449;-87
2021/11/24 11:49:29;;;;;;;2.60;2.10;;;;;;;4.11;74.69;97343.21;105349;1313;31373;-86
2021/11/24 11:52:07;;;;;;;3.70;2.30;;;;;;;4.12;74.21;97335.41;105352;1313;29772;-87
2021/11/24 11:54:39;;;;;;;4.60;2.40;;;;;;;4.06;73.99;97330.98;105447;1309;27717;-87